Time;durP1;ratioP1;P1;durP2;ratioP2;P2;SDS_P1;SDS_P2;PMS_P1;PMS_P2;Temp;Humidity;BMP_temperature;BMP_pressure;BME280_temperature;BME280_humidity;BME280_pressure;Samples;Min_cycle;Max_cycle;Signal;HPM_P1;HPM_P2
2021/08/12 00:01:23;;;;;;;10.07;7.20;;;19.40;67.20;;;;;;5066223;28;20256;-90
2021/08/12 00:03:49;;;;;;;14.67;7.17;;;19.30;67.60;;;;;;5052425;28;20197;-90
2021/08/12 00:06:16;;;;;;;10.60;6.97;;;19.10;67.90;;;;;;5057376;28;20165;-90
2021/08/12 00:08:42;;;;;;;7.90;6.18;;;19.10;68.20;;;;;;5061572;28;20181;-90
2021/08/12 00:11:07;;;;;;;8.17;6.00;;;19.20;68.30;;;;;;5071923;28;20165;-90
2021/08/12 00:13:33;;;;;;;16.90;6.10;;;19.40;67.90;;;;;;5072751;28;20447;-91
2021/08/12 00:16:00;;;;;;;7.43;6.20;;;19.50;67.60;;;;;;5074635;28;20436;-90
2021/08/12 00:18:26;;;;;;;15.45;6.90;;;19.40;67.30;;;;;;5066381;28;20181;-91
2021/08/12 00:20:52;;;;;;;9.45;6.18;;;19.30;67.30;;;;;;5072345;28;20211;-90
2021/08/12 00:23:18;;;;;;;9.37;5.70;;;19.30;67.40;;;;;;5064087;28;20292;-91
2021/08/12 00:25:48;;;;;;;11.73;6.90;;;19.40;67.30;;;;;;5063064;28;20447;-91
2021/08/12 00:28:15;;;;;;;9.90;7.82;;;19.50;67.20;;;;;;5055206;28;20184;-91
2021/08/12 00:30:41;;;;;;;13.32;6.88;;;19.50;67.10;;;;;;5052255;28;20191;-91
2021/08/12 00:33:06;;;;;;;11.20;7.47;;;19.40;67.10;;;;;;5053797;28;20204;-90
2021/08/12 00:35:32;;;;;;;10.13;7.33;;;19.50;67.20;;;;;;5055845;28;20424;-90
2021/08/12 00:37:58;;;;;;;14.60;7.40;;;19.50;67.10;;;;;;5051800;28;20205;-91
2021/08/12 00:40:25;;;;;;;9.00;8.03;;;19.40;67.10;;;;;;5052092;28;20177;-91
2021/08/12 00:42:51;;;;;;;13.27;7.43;;;19.40;67.30;;;;;;5052695;28;20192;-90
2021/08/12 00:45:17;;;;;;;13.40;7.50;;;19.40;67.40;;;;;;5062276;28;20185;-90
2021/08/12 00:47:42;;;;;;;8.07;7.23;;;19.40;67.50;;;;;;5053007;28;20173;-91
2021/08/12 00:50:09;;;;;;;10.03;6.63;;;19.40;67.60;;;;;;5051606;28;20181;-90
2021/08/12 00:52:35;;;;;;;7.38;6.40;;;19.50;67.10;;;;;;5051498;28;20688;-91
2021/08/12 00:55:03;;;;;;;9.65;6.85;;;19.60;66.70;;;;;;5055765;28;20621;-90
2021/08/12 00:57:28;;;;;;;7.10;5.82;;;19.50;66.50;;;;;;5055401;28;20191;-90
2021/08/12 00:59:54;;;;;;;12.43;6.67;;;19.40;66.50;;;;;;5056962;28;20268;-90
2021/08/12 01:02:20;;;;;;;8.70;6.20;;;19.40;66.70;;;;;;5055335;28;20463;-90
2021/08/12 01:04:48;;;;;;;8.50;6.67;;;19.40;66.80;;;;;;5055542;28;20196;-90
2021/08/12 01:07:26;;;;;;;9.75;6.22;;;19.30;67.10;;;;;;5057044;28;20177;-91
2021/08/12 01:10:25;;;;;;;8.23;5.95;;;19.40;67.00;;;;;;5055584;28;20173;-90
2021/08/12 01:13:07;;;;;;;9.10;5.60;;;19.40;67.00;;;;;;5068558;28;20185;-89
2021/08/12 01:15:41;;;;;;;9.32;6.80;;;19.40;67.00;;;;;;5055300;28;20185;-90
2021/08/12 01:18:10;;;;;;;9.52;7.40;;;19.40;66.90;;;;;;5055012;28;20217;-90
2021/08/12 01:21:05;;;;;;;9.80;5.82;;;19.40;66.90;;;;;;5055901;28;20197;-90
2021/08/12 01:23:32;;;;;;;9.15;6.40;;;19.40;66.70;;;;;;5054349;28;20233;-90
2021/08/12 01:26:00;;;;;;;7.75;6.43;;;19.30;67.60;;;;;;5057192;28;20205;-90
2021/08/12 01:28:30;;;;;;;9.63;5.78;;;19.40;67.00;;;;;;5054874;28;20184;-90
2021/08/12 01:31:17;;;;;;;8.90;6.47;;;19.40;67.00;;;;;;5054874;28;20223;-90
2021/08/12 01:34:03;;;;;;;8.55;7.35;;;19.40;67.30;;;;;;5055610;28;20193;-90
2021/08/12 01:36:30;;;;;;;12.35;6.47;;;19.20;67.30;;;;;;5054803;28;20355;-91
2021/08/12 01:38:57;;;;;;;7.65;6.03;;;19.10;67.90;;;;;;5056019;28;20238;-91
2021/08/12 01:41:25;;;;;;;8.35;6.30;;;19.10;67.90;;;;;;5054812;28;20675;-91
2021/08/12 01:43:51;;;;;;;10.27;6.60;;;19.20;68.10;;;;;;5059434;28;20212;-90
2021/08/12 01:46:18;;;;;;;7.80;6.50;;;19.20;68.10;;;;;;5055361;28;20181;-91
2021/08/12 01:48:45;;;;;;;11.43;7.40;;;19.30;68.10;;;;;;5055139;28;20173;-90
2021/08/12 01:51:13;;;;;;;8.52;7.35;;;19.40;68.00;;;;;;5059141;28;20180;-91
2021/08/12 01:53:39;;;;;;;9.50;6.57;;;19.20;67.90;;;;;;5054757;28;20199;-91
2021/08/12 01:56:05;;;;;;;9.20;6.73;;;19.00;68.20;;;;;;5055228;28;20184;-91
2021/08/12 01:58:32;;;;;;;9.32;5.80;;;18.80;68.80;;;;;;5055476;28;20442;-91
2021/08/12 02:00:58;;;;;;;9.55;7.00;;;18.80;69.30;;;;;;5054410;28;20213;-91
2021/08/12 02:03:26;;;;;;;8.40;7.30;;;18.70;69.70;;;;;;5054647;28;20193;-91
2021/08/12 02:05:53;;;;;;;9.38;6.10;;;18.70;70.00;;;;;;5054072;28;20181;-91
2021/08/12 02:08:22;;;;;;;9.70;7.70;;;18.90;69.90;;;;;;5064842;28;20173;-90
2021/08/12 02:10:49;;;;;;;12.82;8.25;;;18.80;69.40;;;;;;5056704;28;20272;-91
2021/08/12 02:13:15;;;;;;;12.73;7.60;;;18.50;69.70;;;;;;5053545;28;20197;-91
2021/08/12 02:15:41;;;;;;;16.23;8.00;;;18.60;70.10;;;;;;5054116;28;20205;-91
2021/08/12 02:18:07;;;;;;;10.88;7.75;;;18.60;70.00;;;;;;5054315;28;20197;-91
2021/08/12 02:20:34;;;;;;;12.10;7.87;;;18.50;70.10;;;;;;5054560;28;20347;-91
2021/08/12 02:23:14;;;;;;;9.57;7.35;;;18.60;70.40;;;;;;5053459;28;20741;-91
2021/08/12 02:25:55;;;;;;;13.57;8.68;;;18.80;70.10;;;;;;5054051;28;20621;-91
2021/08/12 02:28:22;;;;;;;12.70;7.40;;;18.80;69.80;;;;;;5054085;28;20227;-91
2021/08/12 02:30:51;;;;;;;10.35;7.40;;;18.80;69.60;;;;;;5055357;28;20739;-91
2021/08/12 02:33:20;;;;;;;9.65;7.97;;;18.80;69.60;;;;;;5053444;28;20732;-91
2021/08/12 02:35:51;;;;;;;11.15;7.80;;;18.80;69.80;;;;;;5055295;28;20181;-91
2021/08/12 02:38:17;;;;;;;10.38;7.45;;;18.80;69.70;;;;;;5053958;28;20173;-91
2021/08/12 02:40:44;;;;;;;10.75;8.05;;;18.70;69.90;;;;;;5053651;28;20227;-91
2021/08/12 02:43:11;;;;;;;12.20;8.25;;;18.60;70.10;;;;;;5053026;28;20197;-91
2021/08/12 02:45:37;;;;;;;11.55;8.55;;;18.70;70.10;;;;;;5053559;28;20652;-91
2021/08/12 02:48:07;;;;;;;13.07;8.85;;;18.60;70.10;;;;;;5053939;28;20177;-91
2021/08/12 02:50:34;;;;;;;11.13;8.13;;;18.60;70.20;;;;;;5055039;28;20236;-91
2021/08/12 02:53:00;;;;;;;9.55;6.97;;;18.60;70.10;;;;;;5054868;28;20200;-91
2021/08/12 02:55:26;;;;;;;9.32;8.27;;;18.60;70.20;;;;;;5055608;28;20706;-90
2021/08/12 02:57:51;;;;;;;8.70;7.37;;;18.60;70.10;;;;;;5053641;28;20230;-91
2021/08/12 03:00:18;;;;;;;8.93;6.37;;;18.40;70.30;;;;;;5053681;28;20423;-91
2021/08/12 03:02:48;;;;;;;10.23;7.85;;;18.30;70.90;;;;;;5052705;28;20606;-91
2021/08/12 03:05:15;;;;;;;14.95;9.35;;;18.30;71.20;;;;;;5067245;28;20193;-91
2021/08/12 03:07:45;;;;;;;14.40;7.70;;;18.30;71.20;;;;;;5053734;28;20268;-91
2021/08/12 03:10:18;;;;;;;10.02;7.18;;;18.30;71.20;;;;;;5053033;28;20200;-91
2021/08/12 03:12:46;;;;;;;14.15;7.55;;;18.20;71.10;;;;;;5052826;28;20197;-91
2021/08/12 03:15:13;;;;;;;9.43;6.82;;;18.20;71.30;;;;;;5053009;28;20181;-91
2021/08/12 03:17:39;;;;;;;13.02;8.23;;;18.30;71.40;;;;;;5052557;28;20185;-91
2021/08/12 03:20:09;;;;;;;12.63;7.75;;;18.30;71.10;;;;;;5054318;28;20187;-91
2021/08/12 03:22:34;;;;;;;10.50;7.38;;;18.40;71.00;;;;;;5052365;28;20240;-91
2021/08/12 03:25:00;;;;;;;12.43;7.47;;;18.50;70.70;;;;;;5052996;28;20212;-90
2021/08/12 03:27:26;;;;;;;10.00;7.93;;;18.60;70.50;;;;;;5052414;28;20753;-91
2021/08/12 03:29:52;;;;;;;11.73;7.47;;;18.60;70.10;;;;;;5053133;28;20412;-91
2021/08/12 03:32:19;;;;;;;8.60;6.70;;;18.50;70.20;;;;;;5052429;28;20196;-91
2021/08/12 03:34:46;;;;;;;10.68;7.35;;;18.50;70.50;;;;;;5052623;28;20184;-91
2021/08/12 03:37:12;;;;;;;11.23;7.32;;;18.40;70.40;;;;;;5052977;28;20185;-91
2021/08/12 03:39:38;;;;;;;10.45;6.70;;;18.50;70.50;;;;;;5052652;28;20208;-91
2021/08/12 03:42:04;;;;;;;9.07;7.20;;;18.50;70.40;;;;;;5052100;28;20294;-91
2021/08/12 03:44:30;;;;;;;12.50;6.40;;;18.50;70.40;;;;;;5053689;28;20176;-91
2021/08/12 03:46:55;;;;;;;7.00;6.30;;;18.50;70.20;;;;;;5052561;28;20551;-91
2021/08/12 03:49:21;;;;;;;9.80;6.60;;;18.50;70.20;;;;;;5052968;28;20443;-91
2021/08/12 03:51:47;;;;;;;7.93;6.47;;;18.30;70.50;;;;;;5052682;28;20192;-91
2021/08/12 03:54:12;;;;;;;9.77;7.30;;;18.20;71.00;;;;;;5052504;28;20597;-91
2021/08/12 03:56:38;;;;;;;13.80;7.17;;;18.10;71.30;;;;;;5053189;28;20703;-92
2021/08/12 03:59:04;;;;;;;15.57;7.40;;;18.00;71.60;;;;;;5057992;28;20165;-91
2021/08/12 04:01:31;;;;;;;9.00;7.60;;;18.10;72.00;;;;;;5059586;28;20463;-91
2021/08/12 04:03:57;;;;;;;12.98;6.45;;;18.20;71.60;;;;;;5053438;28;20698;-91
2021/08/12 04:06:23;;;;;;;13.60;7.70;;;18.30;71.40;;;;;;5055978;28;20177;-91
2021/08/12 04:08:49;;;;;;;14.73;8.40;;;18.30;70.90;;;;;;5056065;28;20180;-91
2021/08/12 04:11:14;;;;;;;13.50;7.23;;;18.40;70.50;;;;;;5054621;28;20180;-91
2021/08/12 04:13:40;;;;;;;9.33;7.37;;;18.40;70.40;;;;;;5052578;28;20290;-91
2021/08/12 04:16:06;;;;;;;12.33;8.50;;;18.40;70.40;;;;;;5052264;28;20203;-91
2021/08/12 04:18:32;;;;;;;9.93;7.10;;;18.40;70.40;;;;;;5055042;28;20267;-91
2021/08/12 04:20:58;;;;;;;10.75;8.02;;;18.30;70.50;;;;;;5051971;28;20193;-90
2021/08/12 04:23:23;;;;;;;10.00;6.80;;;18.20;70.80;;;;;;5051977;28;20197;-91
2021/08/12 04:25:51;;;;;;;11.03;7.70;;;18.20;71.00;;;;;;5053032;28;20184;-91
2021/08/12 04:28:17;;;;;;;11.75;7.80;;;18.40;70.70;;;;;;5052452;28;20201;-91
2021/08/12 04:30:43;;;;;;;14.30;7.77;;;18.40;70.50;;;;;;5057038;28;20181;-91
2021/08/12 04:33:09;;;;;;;9.17;8.17;;;18.50;70.40;;;;;;5056744;28;20200;-91
2021/08/12 04:35:34;;;;;;;12.10;7.70;;;18.60;70.10;;;;;;5057099;28;20230;-91
2021/08/12 04:38:00;;;;;;;11.17;8.17;;;18.60;69.90;;;;;;5057439;28;20185;-91
2021/08/12 04:40:26;;;;;;;12.43;9.50;;;18.50;70.10;;;;;;5056897;28;20185;-91
2021/08/12 04:42:53;;;;;;;11.57;8.80;;;18.60;70.00;;;;;;5056304;28;20435;-91
2021/08/12 04:45:20;;;;;;;12.13;8.05;;;18.60;69.80;;;;;;5056053;28;20177;-91
2021/08/12 04:47:46;;;;;;;11.98;7.47;;;18.60;69.60;;;;;;5056104;28;20272;-91
2021/08/12 04:50:14;;;;;;;16.20;7.67;;;18.80;69.50;;;;;;5055712;28;20233;-91
2021/08/12 04:52:40;;;;;;;9.90;7.38;;;18.80;69.20;;;;;;5055199;28;20684;-91
2021/08/12 04:55:08;;;;;;;11.20;7.50;;;18.80;69.30;;;;;;5062708;28;20193;-91
2021/08/12 04:57:34;;;;;;;11.82;7.82;;;18.80;69.30;;;;;;5070942;28;20231;-91
2021/08/12 04:59:59;;;;;;;14.60;7.87;;;18.90;69.20;;;;;;5056005;28;20181;-91
2021/08/12 05:02:26;;;;;;;11.63;7.50;;;19.00;68.80;;;;;;5054964;28;20217;-91
2021/08/12 05:04:52;;;;;;;10.43;8.80;;;19.10;68.20;;;;;;5056477;28;20174;-91
2021/08/12 05:07:18;;;;;;;14.43;8.43;;;19.10;68.10;;;;;;5056361;28;20185;-91
2021/08/12 05:09:43;;;;;;;19.10;8.93;;;19.10;67.90;;;;;;5056002;28;20419;-91
2021/08/12 05:12:09;;;;;;;10.20;8.30;;;19.20;67.80;;;;;;5055926;28;20651;-91
2021/08/12 05:14:35;;;;;;;12.67;7.30;;;19.20;67.80;;;;;;5055768;28;20173;-91
2021/08/12 05:17:01;;;;;;;18.53;9.70;;;19.10;67.90;;;;;;5055719;28;20197;-91
2021/08/12 05:19:26;;;;;;;11.37;8.00;;;19.20;67.90;;;;;;5056290;28;20193;-91
2021/08/12 05:21:52;;;;;;;9.30;7.70;;;19.20;67.80;;;;;;5055513;28;20192;-91
2021/08/12 05:24:18;;;;;;;18.73;7.90;;;19.10;68.00;;;;;;5055917;28;20211;-91
2021/08/12 05:26:43;;;;;;;17.60;7.83;;;19.20;67.90;;;;;;5056808;28;20499;-91
2021/08/12 05:29:09;;;;;;;10.77;7.60;;;19.20;67.80;;;;;;5056346;28;20193;-91
2021/08/12 05:31:35;;;;;;;12.17;8.47;;;19.00;68.20;;;;;;5057462;28;20280;-91
2021/08/12 05:34:01;;;;;;;12.77;8.73;;;18.90;68.90;;;;;;5058850;28;20178;-91
2021/08/12 05:36:26;;;;;;;10.67;7.60;;;19.00;69.20;;;;;;5058140;28;20184;-91
2021/08/12 05:38:57;;;;;;;14.30;8.53;;;19.20;68.70;;;;;;5064275;28;20269;-91
2021/08/12 05:41:23;;;;;;;8.90;7.20;;;19.60;68.00;;;;;;5060513;28;20220;-91
2021/08/12 05:43:48;;;;;;;12.30;7.13;;;20.30;66.50;;;;;;5067072;28;20201;-91
2021/08/12 05:46:14;;;;;;;7.57;6.40;;;21.30;64.50;;;;;;5064221;28;20173;-91
2021/08/12 05:48:40;;;;;;;10.13;7.27;;;22.20;62.10;;;;;;5065195;28;20264;-91
2021/08/12 05:51:06;;;;;;;8.77;6.20;;;23.30;59.20;;;;;;5075365;28;20504;-90
2021/08/12 05:53:31;;;;;;;16.30;6.67;;;24.30;55.70;;;;;;5057818;28;20211;-91
2021/08/12 05:55:57;;;;;;;11.10;6.20;;;24.50;53.20;;;;;;5056536;28;20189;-91
2021/08/12 05:58:23;;;;;;;7.93;6.43;;;24.80;52.00;;;;;;5055253;28;20177;-91
2021/08/12 06:00:49;;;;;;;10.73;8.03;;;24.80;51.30;;;;;;5054952;28;20201;-91
2021/08/12 06:03:15;;;;;;;10.47;7.73;;;24.90;51.00;;;;;;5037948;28;20201;-91
2021/08/12 06:05:41;;;;;;;7.70;6.20;;;24.60;51.00;;;;;;5054920;28;20260;-91
2021/08/12 06:08:10;;;;;;;9.67;7.17;;;24.40;51.70;;;;;;5055228;28;20529;-91
2021/08/12 06:10:36;;;;;;;11.00;7.73;;;24.10;52.30;;;;;;5055667;28;20420;-91
2021/08/12 06:13:02;;;;;;;11.23;8.00;;;23.70;53.20;;;;;;5055035;28;20451;-91
2021/08/12 06:15:29;;;;;;;8.73;7.03;;;23.60;54.00;;;;;;5055975;28;20447;-91
2021/08/12 06:17:55;;;;;;;12.40;7.93;;;23.50;54.50;;;;;;5055580;28;20428;-91
2021/08/12 06:20:22;;;;;;;11.37;8.47;;;23.70;54.60;;;;;;5055272;28;20403;-91
2021/08/12 06:22:50;;;;;;;12.77;9.07;;;23.70;54.20;;;;;;5054988;28;20474;-91
2021/08/12 06:25:16;;;;;;;16.93;9.90;;;24.00;53.90;;;;;;5054562;28;20495;-91
2021/08/12 06:27:42;;;;;;;12.97;9.50;;;24.10;53.50;;;;;;5055919;28;20411;-91
2021/08/12 06:30:10;;;;;;;14.23;10.07;;;24.20;52.90;;;;;;5054507;28;20404;-91
2021/08/12 06:32:36;;;;;;;15.07;9.83;;;24.40;52.60;;;;;;5054452;28;20973;-91
2021/08/12 06:35:02;;;;;;;14.83;9.30;;;24.70;52.50;;;;;;5055829;28;20430;-91
2021/08/12 06:37:31;;;;;;;14.00;8.80;;;24.80;51.90;;;;;;5056072;28;20181;-91
2021/08/12 06:39:57;;;;;;;16.80;9.00;;;24.70;51.10;;;;;;5055629;28;20459;-91
2021/08/12 06:42:23;;;;;;;9.57;7.60;;;24.60;50.60;;;;;;5056832;28;20463;-91
2021/08/12 06:44:50;;;;;;;15.13;7.83;;;24.50;50.10;;;;;;5064067;28;20938;-91
2021/08/12 06:47:16;;;;;;;11.10;7.13;;;24.50;49.20;;;;;;5070027;28;20435;-92
2021/08/12 06:49:42;;;;;;;9.97;7.30;;;24.50;49.00;;;;;;5063282;28;20408;-92
2021/08/12 06:52:08;;;;;;;12.67;7.40;;;24.60;49.40;;;;;;5075488;28;20201;-92
2021/08/12 06:54:34;;;;;;;7.87;7.00;;;24.80;49.40;;;;;;5060111;28;20238;-91
2021/08/12 06:56:59;;;;;;;10.23;6.80;;;24.90;48.70;;;;;;5053835;28;20934;-91
2021/08/12 06:59:25;;;;;;;11.53;6.23;;;25.10;47.90;;;;;;5053529;28;20194;-91
2021/08/12 07:01:51;;;;;;;13.83;6.43;;;25.10;47.10;;;;;;5053853;28;20216;-91
2021/08/12 07:04:16;;;;;;;9.10;6.50;;;25.00;46.60;;;;;;5054304;28;20197;-91
2021/08/12 07:06:42;;;;;;;11.00;7.00;;;24.60;46.20;;;;;;5054621;28;20173;-91
2021/08/12 07:09:08;;;;;;;17.43;7.97;;;24.40;46.90;;;;;;5054754;28;20503;-91
2021/08/12 07:11:34;;;;;;;11.07;6.60;;;24.60;47.50;;;;;;5053697;28;20182;-91
2021/08/12 07:13:59;;;;;;;14.80;7.00;;;24.80;47.60;;;;;;5054453;28;20187;-91
2021/08/12 07:16:25;;;;;;;15.83;7.00;;;24.90;47.20;;;;;;5057068;28;20224;-91
2021/08/12 07:18:51;;;;;;;14.83;7.50;;;25.00;46.60;;;;;;5058611;28;20656;-91
2021/08/12 07:21:21;;;;;;;19.27;8.87;;;24.80;47.20;;;;;;5060556;28;20203;-91
2021/08/12 07:23:47;;;;;;;15.57;7.40;;;24.50;47.60;;;;;;5057279;28;20201;-91
2021/08/12 07:26:14;;;;;;;15.03;8.00;;;24.20;47.80;;;;;;5056960;28;20439;-91
2021/08/12 07:28:41;;;;;;;12.20;7.70;;;23.80;48.30;;;;;;5060777;28;20446;-91
2021/08/12 07:31:12;;;;;;;12.80;7.63;;;23.60;49.20;;;;;;5058546;28;20420;-91
2021/08/12 07:33:38;;;;;;;11.47;8.03;;;23.20;50.20;;;;;;5055603;28;20501;-91
2021/08/12 07:36:05;;;;;;;15.90;8.53;;;23.20;51.20;;;;;;5054886;28;20419;-91
2021/08/12 07:38:32;;;;;;;13.80;9.17;;;23.10;51.60;;;;;;5058673;28;20415;-91
2021/08/12 07:40:58;;;;;;;20.00;8.47;;;23.00;51.90;;;;;;5058776;28;20815;-91
2021/08/12 07:43:24;;;;;;;22.53;8.87;;;22.90;52.50;;;;;;5074522;28;20458;-91
2021/08/12 07:45:50;;;;;;;11.40;7.20;;;23.00;52.80;;;;;;5076521;28;20511;-90
2021/08/12 07:48:16;;;;;;;13.00;7.70;;;23.10;52.70;;;;;;5075704;28;20454;-91
2021/08/12 07:50:42;;;;;;;14.73;8.47;;;23.20;52.60;;;;;;5076163;28;20428;-89
2021/08/12 07:53:08;;;;;;;11.63;7.13;;;23.40;52.40;;;;;;5075585;28;20197;-92
2021/08/12 07:55:33;;;;;;;13.53;7.53;;;23.50;51.20;;;;;;5075232;28;20434;-92
2021/08/12 07:57:59;;;;;;;18.00;8.10;;;23.20;51.30;;;;;;5075532;28;20169;-90
2021/08/12 08:00:25;;;;;;;16.93;8.97;;;23.10;51.90;;;;;;5076683;28;20204;-91
2021/08/12 08:02:51;;;;;;;13.47;7.43;;;23.30;51.90;;;;;;5076036;28;20212;-91
2021/08/12 08:05:21;;;;;;;8.73;6.70;;;23.40;51.90;;;;;;5075547;28;20446;-91
2021/08/12 08:07:49;;;;;;;7.27;6.50;;;23.50;51.60;;;;;;5074726;28;20173;-91
2021/08/12 08:10:16;;;;;;;12.30;7.20;;;23.60;51.30;;;;;;5069650;28;20423;-91
2021/08/12 08:12:42;;;;;;;15.17;6.27;;;23.40;51.00;;;;;;5052358;28;20440;-91
2021/08/12 08:15:09;;;;;;;14.07;5.83;;;23.60;50.60;;;;;;5052671;28;20489;-91
2021/08/12 08:17:35;;;;;;;8.80;6.43;;;23.50;50.80;;;;;;5052793;28;20440;-91
2021/08/12 08:20:02;;;;;;;14.03;8.60;;;23.60;51.20;;;;;;5052967;28;20470;-92
2021/08/12 08:22:27;;;;;;;10.60;7.73;;;23.50;51.60;;;;;;5052968;28;20599;-91
2021/08/12 08:24:53;;;;;;;9.50;6.50;;;23.40;52.00;;;;;;5053329;28;20499;-91
2021/08/12 08:27:19;;;;;;;7.40;6.40;;;23.60;53.10;;;;;;5052484;28;20180;-91
2021/08/12 08:29:45;;;;;;;9.13;6.83;;;23.60;52.20;;;;;;5053022;28;20180;-91
2021/08/12 08:32:10;;;;;;;9.87;5.37;;;23.60;51.80;;;;;;5051683;28;20565;-91
2021/08/12 08:34:36;;;;;;;7.33;5.90;;;23.60;51.50;;;;;;5053665;28;20431;-91
2021/08/12 08:37:02;;;;;;;18.33;7.93;;;23.60;51.50;;;;;;5052748;28;20604;-91
2021/08/12 08:39:28;;;;;;;26.77;7.50;;;23.70;51.00;;;;;;5066422;28;20593;-91
2021/08/12 08:41:54;;;;;;;8.80;6.10;;;23.80;51.10;;;;;;5052934;28;20817;-91
2021/08/12 08:44:21;;;;;;;10.73;7.47;;;23.80;51.50;;;;;;5052612;28;20177;-91
2021/08/12 08:46:48;;;;;;;10.17;5.37;;;23.80;51.70;;;;;;5052774;28;20415;-91
2021/08/12 08:49:17;;;;;;;15.83;5.87;;;23.90;51.20;;;;;;5052494;28;20412;-91
2021/08/12 08:51:43;;;;;;;6.90;5.03;;;23.70;51.00;;;;;;5051876;28;20463;-91
2021/08/12 08:54:11;;;;;;;6.67;4.00;;;23.70;51.00;;;;;;5052696;28;20424;-91
2021/08/12 08:56:40;;;;;;;5.03;4.40;;;23.70;51.30;;;;;;5053334;28;20794;-91
2021/08/12 08:59:07;;;;;;;6.80;5.03;;;23.90;51.30;;;;;;5054109;28;20418;-91
2021/08/12 09:01:38;;;;;;;6.93;4.93;;;23.90;50.60;;;;;;5052304;28;20467;-91
2021/08/12 09:04:04;;;;;;;10.97;5.13;;;24.00;50.60;;;;;;5052339;28;20934;-91
2021/08/12 09:06:30;;;;;;;7.80;4.90;;;24.10;50.90;;;;;;5052664;28;20425;-91
2021/08/12 09:08:57;;;;;;;6.20;5.10;;;24.20;50.70;;;;;;5052394;28;20415;-91
2021/08/12 09:11:24;;;;;;;7.30;5.33;;;24.10;50.10;;;;;;5051965;28;20427;-91
2021/08/12 09:13:50;;;;;;;6.37;5.37;;;23.90;50.50;;;;;;5053573;28;20471;-91
2021/08/12 09:16:33;;;;;;;5.00;4.40;;;24.00;50.90;;;;;;5055296;28;21000;-91
2021/08/12 09:19:25;;;;;;;7.83;5.47;;;24.10;51.70;;;;;;5056255;28;20426;-91
2021/08/12 09:22:00;;;;;;;8.33;5.03;;;24.00;53.00;;;;;;5055571;28;20832;-91
2021/08/12 09:24:26;;;;;;;5.80;4.70;;;24.00;52.40;;;;;;5055694;28;20416;-92
2021/08/12 09:26:52;;;;;;;4.77;4.37;;;23.90;52.90;;;;;;5055663;28;20469;-91
2021/08/12 09:29:32;;;;;;;6.90;5.27;;;24.10;53.00;;;;;;5055998;28;20407;-91
2021/08/12 09:32:04;;;;;;;8.67;4.90;;;24.40;52.90;;;;;;5054897;28;20466;-91
2021/08/12 09:34:47;;;;;;;5.57;4.40;;;24.60;52.40;;;;;;5068474;28;20434;-91
2021/08/12 09:37:13;;;;;;;8.20;5.07;;;24.70;51.60;;;;;;5057101;28;20996;-91
2021/08/12 09:39:40;;;;;;;8.37;5.13;;;24.80;51.60;;;;;;5055504;28;20422;-91
2021/08/12 09:42:08;;;;;;;9.27;5.80;;;24.80;51.60;;;;;;5055807;28;20467;-91
2021/08/12 09:44:39;;;;;;;8.03;5.03;;;24.90;50.80;;;;;;5055613;28;20949;-91
2021/08/12 09:47:18;;;;;;;5.43;4.50;;;25.00;50.40;;;;;;5055385;28;20415;-91
2021/08/12 09:49:59;;;;;;;5.70;4.37;;;24.70;50.60;;;;;;5066277;28;20415;-91
2021/08/12 09:52:32;;;;;;;6.03;4.47;;;24.90;50.80;;;;;;5060425;28;20431;-91
2021/08/12 09:55:00;;;;;;;9.40;4.13;;;24.90;51.00;;;;;;5055295;28;20566;-91
2021/08/12 09:57:41;;;;;;;6.80;4.60;;;25.10;51.00;;;;;;5054891;28;20828;-91
2021/08/12 10:00:09;;;;;;;7.57;5.13;;;25.10;50.60;;;;;;5055070;28;20832;-91
2021/08/12 10:02:35;;;;;;;6.73;5.13;;;25.10;50.00;;;;;;5054655;28;20964;-92
2021/08/12 10:05:06;;;;;;;5.00;4.10;;;25.10;50.30;;;;;;5054869;28;20408;-91
2021/08/12 10:07:39;;;;;;;7.70;4.57;;;25.20;50.30;;;;;;5054865;28;20177;-91
2021/08/12 10:10:12;;;;;;;8.40;4.80;;;25.20;50.40;;;;;;5054692;28;20423;-91
2021/08/12 10:12:47;;;;;;;5.10;4.07;;;25.30;50.50;;;;;;5053750;28;20447;-92
2021/08/12 10:15:19;;;;;;;8.30;6.30;;;25.40;50.40;;;;;;5055650;28;20415;-91
2021/08/12 10:17:46;;;;;;;6.47;5.10;;;25.20;50.60;;;;;;5054231;28;20447;-92
2021/08/12 10:20:17;;;;;;;7.50;5.50;;;25.40;50.10;;;;;;5054782;28;20439;-91
2021/08/12 10:22:45;;;;;;;5.67;4.90;;;25.50;50.60;;;;;;5054187;28;20464;-91
2021/08/12 10:25:12;;;;;;;4.93;4.50;;;25.60;50.00;;;;;;5054421;28;20436;-91
2021/08/12 10:27:40;;;;;;;13.33;5.57;;;25.70;49.40;;;;;;5054996;28;20424;-91
2021/08/12 10:30:08;;;;;;;9.73;5.10;;;25.80;49.50;;;;;;5056766;28;20427;-90
2021/08/12 10:32:37;;;;;;;6.17;4.47;;;25.90;49.10;;;;;;5060097;28;20467;-91
2021/08/12 10:35:04;;;;;;;11.60;4.87;;;25.50;49.60;;;;;;5055825;28;20412;-91
2021/08/12 10:37:30;;;;;;;7.10;4.37;;;25.50;49.70;;;;;;5054512;28;20481;-91
2021/08/12 10:39:57;;;;;;;6.13;5.20;;;25.60;50.00;;;;;;5054736;28;20784;-91
2021/08/12 10:42:24;;;;;;;6.17;5.00;;;25.40;49.60;;;;;;5054201;28;20506;-91
2021/08/12 10:44:50;;;;;;;10.13;7.30;;;25.60;50.60;;;;;;5054285;28;20404;-91
2021/08/12 10:47:41;;;;;;;7.27;5.10;;;25.60;50.00;;;;;;5054554;28;20428;-91
2021/08/12 10:50:26;;;;;;;8.77;6.10;;;25.90;49.90;;;;;;5054074;28;20420;-91
2021/08/12 10:53:04;;;;;;;15.60;4.93;;;26.30;50.30;;;;;;5055000;28;20538;-91
2021/08/12 10:55:31;;;;;;;13.93;5.80;;;26.90;49.50;;;;;;5056098;28;20420;-92
2021/08/12 10:58:19;;;;;;;7.03;5.43;;;27.40;47.20;;;;;;5056443;28;20435;-92
2021/08/12 11:00:52;;;;;;;6.73;4.70;;;27.50;45.80;;;;;;5057495;28;20421;-92
2021/08/12 11:03:33;;;;;;;8.53;5.23;;;27.70;46.10;;;;;;5057438;28;20440;-91
2021/08/12 11:06:17;;;;;;;6.63;6.03;;;28.10;45.50;;;;;;5056885;28;21047;-91
2021/08/12 11:08:49;;;;;;;12.87;5.80;;;28.40;44.90;;;;;;5055193;28;20429;-92
2021/08/12 11:11:34;;;;;;;10.97;4.70;;;27.70;43.60;;;;;;5053683;28;20642;-92
2021/08/12 11:14:05;;;;;;;7.27;4.97;;;27.80;44.70;;;;;;5044808;28;20423;-92
2021/08/12 11:16:40;;;;;;;6.07;5.13;;;27.70;44.40;;;;;;5054034;28;20450;-91
2021/08/12 11:19:22;;;;;;;9.73;4.87;;;27.20;45.70;;;;;;5054412;28;20419;-91
2021/08/12 11:21:49;;;;;;;7.27;5.20;;;27.20;46.60;;;;;;5053937;28;20981;-92
2021/08/12 11:24:24;;;;;;;6.33;5.73;;;27.50;46.40;;;;;;5053483;28;20423;-92
2021/08/12 11:26:51;;;;;;;9.53;5.93;;;27.90;45.80;;;;;;5053757;28;20538;-90
2021/08/12 11:29:29;;;;;;;7.97;4.97;;;27.70;44.60;;;;;;5059947;28;20449;-92
2021/08/12 11:32:10;;;;;;;11.33;5.73;;;27.50;45.50;;;;;;5052643;28;20247;-91
2021/08/12 11:34:51;;;;;;;6.13;5.27;;;27.30;45.50;;;;;;5052836;28;20774;-91
2021/08/12 11:37:25;;;;;;;9.73;6.27;;;27.00;46.40;;;;;;5053927;28;20466;-91
2021/08/12 11:40:03;;;;;;;7.97;5.60;;;26.90;46.40;;;;;;5052933;28;20913;-91
2021/08/12 11:42:40;;;;;;;13.30;6.20;;;27.10;47.80;;;;;;5052735;28;20573;-92
2021/08/12 11:45:17;;;;;;;7.77;5.37;;;27.30;47.40;;;;;;5052740;28;20427;-91
2021/08/12 11:47:44;;;;;;;7.67;4.67;;;27.50;46.20;;;;;;5052469;28;20415;-92
2021/08/12 11:50:13;;;;;;;12.30;6.30;;;27.40;46.00;;;;;;5053012;28;20895;-91
2021/08/12 11:52:49;;;;;;;8.83;5.00;;;27.50;45.90;;;;;;5052079;28;20444;-92
2021/08/12 11:55:21;;;;;;;5.50;4.80;;;27.70;46.00;;;;;;5053816;28;20420;-92
2021/08/12 11:57:46;;;;;;;11.30;5.10;;;28.00;46.40;;;;;;5053575;28;20802;-92
2021/08/12 12:00:33;;;;;;;6.33;4.90;;;28.30;45.20;;;;;;5052774;28;20411;-91
2021/08/12 12:02:59;;;;;;;7.53;5.67;;;28.40;44.40;;;;;;5052472;28;20327;-91
2021/08/12 12:05:33;;;;;;;8.30;4.90;;;28.80;43.90;;;;;;5052719;28;20436;-92
2021/08/12 12:08:10;;;;;;;5.50;4.97;;;29.00;44.20;;;;;;5053160;28;20756;-92
2021/08/12 12:10:43;;;;;;;12.70;5.50;;;28.80;42.70;;;;;;5052823;28;20464;-91
2021/08/12 12:13:20;;;;;;;6.63;4.87;;;28.40;43.60;;;;;;5052699;28;20777;-92
2021/08/12 12:15:50;;;;;;;7.47;5.03;;;28.60;43.90;;;;;;5052985;28;20461;-92
2021/08/12 12:18:30;;;;;;;4.50;4.00;;;28.80;43.50;;;;;;5052820;28;20545;-92
2021/08/12 12:21:09;;;;;;;6.60;4.63;;;28.70;43.40;;;;;;5052707;28;20421;-92
2021/08/12 12:23:39;;;;;;;8.53;4.20;;;28.90;43.00;;;;;;5066229;28;20451;-92
2021/08/12 12:26:05;;;;;;;5.00;4.60;;;29.10;43.10;;;;;;5053320;28;20424;-92
2021/08/12 12:28:37;;;;;;;6.63;4.80;;;29.10;42.60;;;;;;5052937;28;20400;-91
2021/08/12 12:31:16;;;;;;;10.93;4.87;;;29.10;42.20;;;;;;5052363;28;20493;-91
2021/08/12 12:33:42;;;;;;;8.10;5.10;;;29.20;41.90;;;;;;5052377;28;20466;-92
2021/08/12 12:36:08;;;;;;;10.17;5.00;;;29.30;42.30;;;;;;5051966;28;20398;-91
2021/08/12 12:38:35;;;;;;;6.07;5.40;;;29.30;41.50;;;;;;5052589;28;20498;-92
2021/08/12 12:41:07;;;;;;;6.17;5.53;;;29.30;42.00;;;;;;5052457;28;20510;-92
2021/08/12 12:43:33;;;;;;;8.27;4.27;;;29.40;42.20;;;;;;5053354;28;20817;-92
2021/08/12 12:45:59;;;;;;;7.43;4.20;;;29.00;41.30;;;;;;5052958;28;20416;-92
2021/08/12 12:48:34;;;;;;;6.23;5.00;;;29.10;42.00;;;;;;5053093;28;20176;-92